createdAt,value
2017-08-05T00:02:04.759Z,3.20
2017-08-05T00:04:31.803Z,2.90
2017-08-05T00:06:58.092Z,5.45
2017-08-05T00:09:24.427Z,4.37
2017-08-05T00:11:50.711Z,4.97
2017-08-05T00:14:17.019Z,2.85
2017-08-05T00:16:43.343Z,2.95
2017-08-05T00:19:09.680Z,4.57
2017-08-05T00:21:36.759Z,4.07
2017-08-05T00:24:03.099Z,2.37
2017-08-05T00:26:29.412Z,3.20
2017-08-05T00:28:55.758Z,1.80
2017-08-05T00:31:22.055Z,3.55
2017-08-05T00:33:49.230Z,3.67
2017-08-05T00:36:15.568Z,2.37
2017-08-05T00:38:41.863Z,3.55
2017-08-05T00:41:08.173Z,3.58
2017-08-05T00:43:34.527Z,2.30
2017-08-05T00:46:00.875Z,1.95
2017-08-05T00:48:27.183Z,3.72
2017-08-05T00:50:53.471Z,3.95
2017-08-05T00:53:19.800Z,3.47
2017-08-05T00:55:46.102Z,2.70
2017-08-05T00:58:12.416Z,5.55
2017-08-05T01:00:39.487Z,3.37
2017-08-05T01:03:05.837Z,2.90
2017-08-05T01:05:32.233Z,6.07
2017-08-05T01:07:58.608Z,5.97
2017-08-05T01:10:24.959Z,2.70
2017-08-05T01:12:52.012Z,3.92
2017-08-05T01:15:18.348Z,3.92
2017-08-05T01:17:44.702Z,4.62
2017-08-05T01:20:11.023Z,3.17
2017-08-05T01:22:38.074Z,8.70
2017-08-05T01:25:05.204Z,3.33
2017-08-05T01:27:31.578Z,4.35
2017-08-05T01:29:57.863Z,5.90
2017-08-05T01:32:24.204Z,5.00
2017-08-05T01:34:51.339Z,6.57
2017-08-05T01:37:18.404Z,2.40
2017-08-05T01:39:44.807Z,7.12
2017-08-05T01:42:11.151Z,3.95
2017-08-05T01:44:37.483Z,3.65
2017-08-05T01:47:03.867Z,5.22
2017-08-05T01:49:30.222Z,7.03
2017-08-05T01:51:56.600Z,5.93
2017-08-05T01:54:22.947Z,3.65
2017-08-05T01:56:49.278Z,3.65
2017-08-05T01:59:15.619Z,3.80
2017-08-05T02:01:41.967Z,4.30
2017-08-05T02:04:08.315Z,4.68
2017-08-05T02:06:34.695Z,6.97
2017-08-05T02:09:01.011Z,2.95
2017-08-05T02:11:27.411Z,3.85
2017-08-05T02:13:53.755Z,3.42
2017-08-05T02:16:20.039Z,3.65
2017-08-05T02:18:46.337Z,4.25
2017-08-05T02:21:12.643Z,5.45
2017-08-05T02:23:38.935Z,3.50
2017-08-05T02:26:05.236Z,4.20
2017-08-05T02:28:31.556Z,4.82
2017-08-05T02:30:58.617Z,4.53
2017-08-05T02:33:24.970Z,6.05
2017-08-05T02:35:51.303Z,3.08
2017-08-05T02:38:17.648Z,3.28
2017-08-05T02:40:44.030Z,3.75
2017-08-05T02:43:10.337Z,4.35
2017-08-05T02:45:36.631Z,4.95
2017-08-05T02:48:02.962Z,7.72
2017-08-05T02:50:29.254Z,4.53
2017-08-05T02:52:56.463Z,5.65
2017-08-05T02:55:22.826Z,3.20
2017-08-05T02:57:49.859Z,3.47
2017-08-05T03:00:16.907Z,2.87
2017-08-05T03:02:43.247Z,3.83
2017-08-05T03:05:10.280Z,6.32
2017-08-05T03:07:37.379Z,6.07
2017-08-05T03:10:03.731Z,4.95
2017-08-05T03:12:30.011Z,4.60
2017-08-05T03:14:56.388Z,6.85
2017-08-05T03:17:22.688Z,4.43
2017-08-05T03:19:48.995Z,4.37
2017-08-05T03:22:15.342Z,4.60
2017-08-05T03:24:41.623Z,5.93
2017-08-05T03:27:08.699Z,6.57
2017-08-05T03:29:35.756Z,3.90
2017-08-05T03:32:02.089Z,3.95
2017-08-05T03:34:28.404Z,5.07
2017-08-05T03:36:55.463Z,7.53
2017-08-05T03:39:21.792Z,6.68
2017-08-05T03:41:48.096Z,8.20
2017-08-05T03:44:14.432Z,5.25
2017-08-05T03:46:40.726Z,5.10
2017-08-05T03:49:07.037Z,5.57
2017-08-05T03:51:33.363Z,5.97
2017-08-05T03:53:59.651Z,5.70
2017-08-05T03:56:25.957Z,4.90
2017-08-05T03:58:52.317Z,3.33
2017-08-05T04:01:18.627Z,4.72
2017-08-05T04:03:44.995Z,6.03
2017-08-05T04:06:11.299Z,6.68
2017-08-05T04:08:37.615Z,4.62
2017-08-05T04:11:03.956Z,7.60
2017-08-05T04:13:30.255Z,5.82
2017-08-05T04:15:56.611Z,4.53
2017-08-05T04:18:22.975Z,4.35
2017-08-05T04:20:49.311Z,6.47
2017-08-05T04:23:15.600Z,5.53
2017-08-05T04:25:41.956Z,5.32
2017-08-05T04:28:08.287Z,7.43
2017-08-05T04:30:34.608Z,4.80
2017-08-05T04:33:01.640Z,5.03
2017-08-05T04:35:28.007Z,6.28
2017-08-05T04:37:54.312Z,3.55
2017-08-05T04:40:20.607Z,5.07
2017-08-05T04:42:46.923Z,5.37
2017-08-05T04:45:13.207Z,7.40
2017-08-05T04:47:40.263Z,3.12
2017-08-05T04:50:06.571Z,9.13
2017-08-05T04:52:32.881Z,4.25
2017-08-05T04:54:59.241Z,5.75
2017-08-05T04:57:25.539Z,5.10
2017-08-05T04:59:51.839Z,5.80
2017-08-05T05:02:18.205Z,4.75
2017-08-05T05:04:44.515Z,4.97
2017-08-05T05:07:10.863Z,6.05
2017-08-05T05:09:37.219Z,5.72
2017-08-05T05:12:03.513Z,13.82
2017-08-05T05:14:29.805Z,4.07
2017-08-05T05:16:56.127Z,4.70
2017-08-05T05:19:22.465Z,3.70
2017-08-05T05:21:48.779Z,5.53
2017-08-05T05:24:15.165Z,3.00
2017-08-05T05:26:41.558Z,4.65
2017-08-05T05:29:07.859Z,3.58
2017-08-05T05:31:34.231Z,5.57
2017-08-05T05:34:00.597Z,5.53
2017-08-05T05:36:26.951Z,4.80
2017-08-05T05:38:53.276Z,5.18
2017-08-05T05:41:19.573Z,4.70
2017-08-05T05:43:45.940Z,6.07
2017-08-05T05:46:12.235Z,5.93
2017-08-05T05:48:38.588Z,4.40
2017-08-05T05:51:04.883Z,4.43
2017-08-05T05:53:31.212Z,3.15
2017-08-05T05:55:59.023Z,3.85
2017-08-05T05:58:25.307Z,3.60
2017-08-05T06:00:51.639Z,3.78
2017-08-05T06:03:17.950Z,4.80
2017-08-05T06:05:44.264Z,4.28
2017-08-05T06:08:10.633Z,4.47
2017-08-05T06:10:36.940Z,4.75
2017-08-05T06:13:03.357Z,5.43
2017-08-05T06:15:30.419Z,6.35
2017-08-05T06:17:56.722Z,4.68
2017-08-05T06:20:23.003Z,8.65
2017-08-05T06:22:49.308Z,5.80
2017-08-05T06:25:15.603Z,3.10
2017-08-05T06:27:41.929Z,5.15
2017-08-05T06:30:08.243Z,5.47
2017-08-05T06:32:34.594Z,5.95
2017-08-05T06:35:00.919Z,5.72
2017-08-05T06:37:27.224Z,2.35
2017-08-05T06:39:53.535Z,5.57
2017-08-05T06:42:19.887Z,4.68
2017-08-05T06:44:46.198Z,4.28
2017-08-05T06:47:12.562Z,6.18
2017-08-05T06:49:39.676Z,4.57
2017-08-05T06:52:06.106Z,8.35
2017-08-05T06:54:32.500Z,3.25
2017-08-05T06:56:59.588Z,4.55
2017-08-05T06:59:25.885Z,7.78
2017-08-05T07:01:52.952Z,3.90
2017-08-05T07:04:19.251Z,4.20
2017-08-05T07:06:46.323Z,6.65
2017-08-05T07:09:12.656Z,3.80
2017-08-05T07:11:39.977Z,3.75
2017-08-05T07:14:07.048Z,4.35
2017-08-05T07:16:33.383Z,7.90
2017-08-05T07:18:59.684Z,2.70
2017-08-05T07:21:25.993Z,2.30
2017-08-05T07:23:52.282Z,3.47
2017-08-05T07:26:24.202Z,2.53
2017-08-05T07:28:50.531Z,3.62
2017-08-05T07:31:16.874Z,2.65
2017-08-05T07:33:43.237Z,6.07
2017-08-05T07:36:09.563Z,3.40
2017-08-05T07:38:35.863Z,3.95
2017-08-05T07:41:02.954Z,5.22
2017-08-05T07:43:29.291Z,2.42
2017-08-05T07:45:55.603Z,5.60
2017-08-05T07:48:21.936Z,2.47
2017-08-05T07:50:48.236Z,3.65
2017-08-05T07:53:15.296Z,3.40
2017-08-05T07:55:42.358Z,2.72
2017-08-05T07:58:08.717Z,7.53
2017-08-05T08:00:35.019Z,5.30
2017-08-05T08:03:01.331Z,2.97
2017-08-05T08:05:27.692Z,3.10
2017-08-05T08:07:53.987Z,2.25
2017-08-05T08:10:20.295Z,4.00
2017-08-05T08:12:47.368Z,7.72
2017-08-05T08:15:13.679Z,2.90
2017-08-05T08:17:40.416Z,2.60
2017-08-05T08:20:07.079Z,4.50
2017-08-05T08:22:33.386Z,1.83
2017-08-05T08:24:59.720Z,3.70
2017-08-05T08:27:26.767Z,2.78
2017-08-05T08:29:53.087Z,3.28
2017-08-05T08:32:19.375Z,2.28
2017-08-05T08:34:45.716Z,1.62
2017-08-05T08:37:12.027Z,2.33
2017-08-05T08:39:38.391Z,2.47
2017-08-05T08:42:04.687Z,1.87
2017-08-05T08:44:31.007Z,2.00
2017-08-05T08:46:57.389Z,1.55
2017-08-05T08:49:24.835Z,1.90
2017-08-05T08:51:51.135Z,1.45
2017-08-05T08:54:17.468Z,1.67
2017-08-05T08:56:43.824Z,1.62
2017-08-05T08:59:10.120Z,2.20
2017-08-05T09:01:36.445Z,0.98
2017-08-05T09:04:02.793Z,1.67
2017-08-05T09:06:29.119Z,6.87
2017-08-05T09:08:55.480Z,1.52
2017-08-05T09:11:21.779Z,2.28
2017-08-05T09:13:48.136Z,1.90
2017-08-05T09:16:14.502Z,1.62
2017-08-05T09:18:40.837Z,2.20
2017-08-05T09:21:07.884Z,2.50
2017-08-05T09:23:34.268Z,1.40
2017-08-05T09:26:00.572Z,1.35
2017-08-05T09:28:26.932Z,5.57
2017-08-05T09:30:53.273Z,1.40
2017-08-05T09:33:19.596Z,1.85
2017-08-05T09:35:45.930Z,2.28
2017-08-05T09:38:12.263Z,1.52
2017-08-05T09:40:38.559Z,3.45
2017-08-05T09:43:04.907Z,1.40
2017-08-05T09:45:31.268Z,2.15
2017-08-05T09:47:57.662Z,1.62
2017-08-05T09:50:23.999Z,5.25
2017-08-05T09:52:50.303Z,2.75
2017-08-05T09:55:16.594Z,1.77
2017-08-05T09:57:42.924Z,1.65
2017-08-05T10:00:09.969Z,1.50
2017-08-05T10:02:36.299Z,3.58
2017-08-05T10:05:02.702Z,4.60
2017-08-05T10:07:29.032Z,1.40
2017-08-05T10:09:55.336Z,3.15
2017-08-05T10:12:21.707Z,1.60
2017-08-05T10:14:48.788Z,1.27
2017-08-05T10:17:15.259Z,1.35
2017-08-05T10:19:41.632Z,3.75
2017-08-05T10:22:07.955Z,1.85
2017-08-05T10:24:34.307Z,1.35
2017-08-05T10:27:01.682Z,1.50
2017-08-05T10:29:27.995Z,0.95
2017-08-05T10:31:55.033Z,1.27
2017-08-05T10:34:22.113Z,1.10
2017-08-05T10:36:48.397Z,0.60
2017-08-05T10:39:15.516Z,2.03
2017-08-05T10:41:41.880Z,0.90
2017-08-05T10:44:08.169Z,0.88
2017-08-05T10:46:34.523Z,1.27
2017-08-05T10:49:00.807Z,0.90
2017-08-05T10:51:27.139Z,0.85
2017-08-05T10:53:53.432Z,2.08
2017-08-05T10:56:19.738Z,1.35
2017-08-05T10:58:46.043Z,1.17
2017-08-05T11:01:12.666Z,0.60
2017-08-05T11:03:39.025Z,1.27
2017-08-05T11:06:05.383Z,1.62
2017-08-05T11:08:32.458Z,1.77
2017-08-05T11:10:58.779Z,1.15
2017-08-05T11:13:25.859Z,1.12
2017-08-05T11:15:52.170Z,2.15
2017-08-05T11:18:18.524Z,1.55
2017-08-05T11:20:44.875Z,1.52
2017-08-05T11:23:11.182Z,2.60
2017-08-05T11:25:37.506Z,1.65
2017-08-05T11:28:03.856Z,1.00
2017-08-05T11:30:30.205Z,3.62
2017-08-05T11:32:56.495Z,2.22
2017-08-05T11:35:22.840Z,1.70
2017-08-05T11:37:49.237Z,0.90
2017-08-05T11:40:15.940Z,1.60
2017-08-05T11:42:42.259Z,0.80
2017-08-05T11:45:08.596Z,0.80
2017-08-05T11:47:35.453Z,1.10
2017-08-05T11:50:03.151Z,0.93
2017-08-05T11:52:29.524Z,0.85
2017-08-05T11:54:55.839Z,1.45
2017-08-05T11:57:22.197Z,1.48
2017-08-05T11:59:48.500Z,1.15
2017-08-05T12:02:15.120Z,1.00
2017-08-05T12:04:42.826Z,1.70
2017-08-05T12:07:09.247Z,0.80
2017-08-05T12:09:35.584Z,2.45
2017-08-05T12:12:01.875Z,1.65
2017-08-05T12:14:28.192Z,1.40
2017-08-05T12:16:54.596Z,0.90
2017-08-05T12:19:20.899Z,1.10
2017-08-05T12:21:47.256Z,1.10
2017-08-05T12:24:14.574Z,1.23
2017-08-05T12:26:40.997Z,0.95
2017-08-05T12:29:07.716Z,2.90
2017-08-05T12:31:34.016Z,1.25
2017-08-05T12:34:01.051Z,1.33
2017-08-05T12:36:27.392Z,0.85
2017-08-05T12:38:54.471Z,1.65
2017-08-05T12:41:20.826Z,2.15
2017-08-05T12:43:47.114Z,1.70
2017-08-05T12:46:13.456Z,1.70
2017-08-05T12:48:39.791Z,2.30
2017-08-05T12:51:06.116Z,3.00
2017-08-05T12:53:32.419Z,1.58
2017-08-05T12:55:58.712Z,1.40
2017-08-05T12:58:25.042Z,1.20
2017-08-05T13:00:51.375Z,1.55
2017-08-05T13:03:21.326Z,1.33
2017-08-05T13:05:58.239Z,1.98
2017-08-05T13:08:24.737Z,1.05
2017-08-05T13:10:52.722Z,1.50
2017-08-05T13:13:19.031Z,1.70
2017-08-05T13:15:45.379Z,3.20
2017-08-05T13:18:12.465Z,1.00
2017-08-05T13:20:38.763Z,1.02
2017-08-05T13:23:06.275Z,1.92
2017-08-05T13:25:32.624Z,1.60
2017-08-05T13:27:59.316Z,2.25
2017-08-05T13:30:25.821Z,2.90
2017-08-05T13:32:52.257Z,1.12
2017-08-05T13:35:18.560Z,1.20
2017-08-05T13:37:44.964Z,1.62
2017-08-05T13:40:11.279Z,1.95
2017-08-05T13:42:37.664Z,1.05
2017-08-05T13:45:04.721Z,1.85
2017-08-05T13:47:31.671Z,1.60
2017-08-05T13:49:58.009Z,1.80
2017-08-05T13:52:24.357Z,2.65
2017-08-05T13:54:50.735Z,2.22
2017-08-05T13:57:17.073Z,2.20
2017-08-05T13:59:43.372Z,1.85
2017-08-05T14:02:09.683Z,3.05
2017-08-05T14:04:35.999Z,1.92
2017-08-05T14:07:02.320Z,2.65
2017-08-05T14:09:28.717Z,1.33
2017-08-05T14:11:55.024Z,1.67
2017-08-05T14:14:21.334Z,1.75
2017-08-05T14:16:47.676Z,40.45
2017-08-05T14:19:14.041Z,25.98
2017-08-05T14:21:41.099Z,45.42
2017-08-05T14:24:08.155Z,102.43
2017-08-05T14:26:34.553Z,29.80
2017-08-05T14:29:00.991Z,12.48
2017-08-05T14:31:27.332Z,11.85
2017-08-05T14:33:54.379Z,8.40
2017-08-05T14:36:20.715Z,11.05
2017-08-05T14:38:47.840Z,5.70
2017-08-05T14:41:14.168Z,5.60
2017-08-05T14:43:40.488Z,15.20
2017-08-05T14:46:06.785Z,2.15
2017-08-05T14:48:33.140Z,3.80
2017-08-05T14:50:59.460Z,2.95
2017-08-05T14:53:25.801Z,8.30
2017-08-05T14:55:52.119Z,5.45
2017-08-05T14:58:18.499Z,2.33
2017-08-05T15:00:45.560Z,3.08
2017-08-05T15:03:12.628Z,11.35
2017-08-05T15:05:39.251Z,28.67
2017-08-05T15:08:05.575Z,15.00
2017-08-05T15:10:31.910Z,6.15
2017-08-05T15:12:58.949Z,10.18
2017-08-05T15:15:26.001Z,2.20
2017-08-05T15:17:52.340Z,4.22
2017-08-05T15:20:19.184Z,2.83
2017-08-05T15:22:45.632Z,7.68
2017-08-05T15:25:11.975Z,1.98
2017-08-05T15:27:38.305Z,2.03
2017-08-05T15:30:04.600Z,1.30
2017-08-05T15:32:30.971Z,1.17
2017-08-05T15:34:57.289Z,1.65
2017-08-05T15:37:23.594Z,5.75
2017-08-05T15:39:50.007Z,3.37
2017-08-05T15:42:17.052Z,2.37
2017-08-05T15:44:44.150Z,1.30
2017-08-05T15:47:10.510Z,1.75
2017-08-05T15:49:37.572Z,1.10
2017-08-05T15:52:03.900Z,2.08
2017-08-05T15:54:30.226Z,1.70
2017-08-05T15:56:56.576Z,1.42
2017-08-05T15:59:26.436Z,2.40
2017-08-05T16:01:52.760Z,3.28
2017-08-05T16:04:19.104Z,2.17
2017-08-05T16:06:45.418Z,2.20
2017-08-05T16:09:11.761Z,2.67
2017-08-05T16:11:38.143Z,2.37
2017-08-05T16:14:04.512Z,2.42
2017-08-05T16:16:30.834Z,1.67
2017-08-05T16:18:57.451Z,1.00
2017-08-05T16:21:23.744Z,2.22
2017-08-05T16:23:50.056Z,1.33
2017-08-05T16:26:16.376Z,1.58
2017-08-05T16:28:42.753Z,4.37
2017-08-05T16:31:09.077Z,1.67
2017-08-05T16:33:35.423Z,1.35
2017-08-05T16:36:01.755Z,1.75
2017-08-05T16:38:28.852Z,4.45
2017-08-05T16:40:55.193Z,1.33
2017-08-05T16:43:21.506Z,1.85
2017-08-05T16:45:47.812Z,3.05
2017-08-05T16:48:14.134Z,2.85
2017-08-05T16:50:40.463Z,2.17
2017-08-05T16:53:06.859Z,1.67
2017-08-05T16:55:33.204Z,3.15
2017-08-05T16:57:59.575Z,1.95
2017-08-05T17:00:25.932Z,2.75
2017-08-05T17:02:52.292Z,3.72
2017-08-05T17:05:18.754Z,2.78
2017-08-05T17:07:45.080Z,1.70
2017-08-05T17:10:11.464Z,2.15
2017-08-05T17:12:38.537Z,1.80
2017-08-05T17:15:04.893Z,2.55
2017-08-05T17:17:31.316Z,2.12
2017-08-05T17:19:57.631Z,3.22
2017-08-05T17:22:24.720Z,2.67
2017-08-05T17:24:51.061Z,5.47
2017-08-05T17:27:17.399Z,5.12
2017-08-05T17:29:43.728Z,4.37
2017-08-05T17:32:10.011Z,4.22
2017-08-05T17:34:36.329Z,4.35
2017-08-05T17:37:03.372Z,18.95
2017-08-05T17:39:30.447Z,3.45
2017-08-05T17:41:56.748Z,4.35
2017-08-05T17:44:23.869Z,3.45
2017-08-05T17:46:50.203Z,3.90
2017-08-05T17:49:16.624Z,3.28
2017-08-05T17:51:43.719Z,3.80
2017-08-05T17:54:10.029Z,2.35
2017-08-05T17:56:36.360Z,2.33
2017-08-05T17:59:02.851Z,4.65
2017-08-05T18:01:29.207Z,2.30
2017-08-05T18:03:55.520Z,2.83
2017-08-05T18:06:21.840Z,3.70
2017-08-05T18:08:48.208Z,4.65
2017-08-05T18:11:14.518Z,3.05
2017-08-05T18:13:40.830Z,7.18
2017-08-05T18:16:07.171Z,2.70
2017-08-05T18:18:33.496Z,4.78
2017-08-05T18:20:59.800Z,2.70
2017-08-05T18:23:26.173Z,1.90
2017-08-05T18:25:52.553Z,2.22
2017-08-05T18:28:19.307Z,4.95
2017-08-05T18:30:45.684Z,3.90
2017-08-05T18:33:11.998Z,3.78
2017-08-05T18:35:38.324Z,1.95
2017-08-05T18:38:04.666Z,1.85
2017-08-05T18:40:31.053Z,2.85
2017-08-05T18:42:57.387Z,2.75
2017-08-05T18:45:23.680Z,1.92
2017-08-05T18:47:50.764Z,2.22
2017-08-05T18:50:17.154Z,2.25
2017-08-05T18:52:44.360Z,1.98
2017-08-05T18:55:10.671Z,2.03
2017-08-05T18:57:36.994Z,1.77
2017-08-05T19:00:03.340Z,2.60
2017-08-05T19:02:29.662Z,3.05
2017-08-05T19:04:56.008Z,1.42
2017-08-05T19:07:22.316Z,3.97
2017-08-05T19:09:48.624Z,1.25
2017-08-05T19:12:15.768Z,2.25
2017-08-05T19:14:42.824Z,0.80
2017-08-05T19:17:09.896Z,2.20
2017-08-05T19:19:36.203Z,2.37
2017-08-05T19:22:03.245Z,1.60
2017-08-05T19:24:30.335Z,2.15
2017-08-05T19:26:56.694Z,1.58
2017-08-05T19:29:23.039Z,1.33
2017-08-05T19:31:50.120Z,1.00
2017-08-05T19:34:16.485Z,1.80
2017-08-05T19:36:42.815Z,1.80
2017-08-05T19:39:09.203Z,3.80
2017-08-05T19:41:35.583Z,1.02
2017-08-05T19:44:01.875Z,3.15
2017-08-05T19:46:28.175Z,4.05
2017-08-05T19:48:55.243Z,1.80
2017-08-05T19:51:21.579Z,1.92
2017-08-05T19:53:49.210Z,1.45
2017-08-05T19:56:15.675Z,1.92
2017-08-05T19:58:42.056Z,0.90
2017-08-05T20:01:08.408Z,1.45
2017-08-05T20:03:35.448Z,1.35
2017-08-05T20:06:01.736Z,1.25
2017-08-05T20:08:28.049Z,1.62
2017-08-05T20:10:54.373Z,1.77
2017-08-05T20:13:20.712Z,1.90
2017-08-05T20:15:47.063Z,1.05
2017-08-05T20:18:13.406Z,1.50
2017-08-05T20:20:39.710Z,1.90
2017-08-05T20:23:06.039Z,2.35
2017-08-05T20:25:32.351Z,1.67
2017-08-05T20:27:58.636Z,1.45
2017-08-05T20:30:24.952Z,1.15
2017-08-05T20:32:51.300Z,5.68
2017-08-05T20:35:17.743Z,1.23
2017-08-05T20:37:44.044Z,1.20
2017-08-05T20:40:10.387Z,1.35
2017-08-05T20:42:36.740Z,3.10
2017-08-05T20:45:03.819Z,2.60
2017-08-05T20:47:30.112Z,1.98
2017-08-05T20:49:56.429Z,1.33
2017-08-05T20:52:22.795Z,2.22
2017-08-05T20:54:49.140Z,1.15
2017-08-05T20:57:15.503Z,2.78
2017-08-05T20:59:41.831Z,3.25
2017-08-05T21:02:08.155Z,1.98
2017-08-05T21:04:34.496Z,1.10
2017-08-05T21:07:00.797Z,0.90
2017-08-05T21:09:27.132Z,2.22
2017-08-05T21:11:53.472Z,1.40
2017-08-05T21:14:19.790Z,1.30
2017-08-05T21:16:46.129Z,1.50
2017-08-05T21:19:12.424Z,1.85
2017-08-05T21:21:38.771Z,1.80
2017-08-05T21:24:05.099Z,1.10
2017-08-05T21:26:31.459Z,1.30
2017-08-05T21:28:57.731Z,1.58
2017-08-05T21:31:24.772Z,1.52
2017-08-05T21:33:51.847Z,1.40
2017-08-05T21:36:18.145Z,1.30
2017-08-05T21:38:46.046Z,1.70
2017-08-05T21:41:12.349Z,1.62
2017-08-05T21:43:39.396Z,1.73
2017-08-05T21:46:05.743Z,1.55
2017-08-05T21:48:32.040Z,1.87
2017-08-05T21:50:58.359Z,1.25
2017-08-05T21:53:24.648Z,1.70
2017-08-05T21:55:51.728Z,1.30
2017-08-05T21:58:18.063Z,1.95
2017-08-05T22:00:44.374Z,2.10
2017-08-05T22:03:11.514Z,1.65
2017-08-05T22:05:38.280Z,2.08
2017-08-05T22:08:04.608Z,3.25
2017-08-05T22:10:31.007Z,3.05
2017-08-05T22:12:57.292Z,2.87
2017-08-05T22:15:23.616Z,2.75
2017-08-05T22:17:49.928Z,1.73
2017-08-05T22:20:16.228Z,1.85
2017-08-05T22:22:42.596Z,1.20
2017-08-05T22:25:09.019Z,1.33
2017-08-05T22:27:35.367Z,1.10
2017-08-05T22:30:01.698Z,1.35
2017-08-05T22:32:28.349Z,1.87
2017-08-05T22:34:55.424Z,1.27
2017-08-05T22:37:21.723Z,1.75
2017-08-05T22:39:48.834Z,2.10
2017-08-05T22:42:15.952Z,4.12
2017-08-05T22:44:42.256Z,2.15
2017-08-05T22:47:09.303Z,2.10
2017-08-05T22:49:35.619Z,1.60
2017-08-05T22:52:01.924Z,1.80
2017-08-05T22:54:29.377Z,2.75
2017-08-05T22:56:55.724Z,2.60
2017-08-05T22:59:22.028Z,4.50
2017-08-05T23:01:48.328Z,2.15
2017-08-05T23:04:14.810Z,2.08
2017-08-05T23:06:41.883Z,2.47
2017-08-05T23:09:08.265Z,2.85
2017-08-05T23:11:34.652Z,2.97
2017-08-05T23:14:01.004Z,1.30
2017-08-05T23:16:27.315Z,2.12
2017-08-05T23:18:53.610Z,1.55
2017-08-05T23:21:19.961Z,3.08
2017-08-05T23:23:46.260Z,1.33
2017-08-05T23:26:12.577Z,1.77
2017-08-05T23:28:38.859Z,2.85
2017-08-05T23:31:06.128Z,1.50
2017-08-05T23:33:33.196Z,1.87
2017-08-05T23:35:59.727Z,1.45
2017-08-05T23:38:26.007Z,1.92
2017-08-05T23:40:52.326Z,1.65
2017-08-05T23:43:18.659Z,2.62
2017-08-05T23:45:44.978Z,2.72
2017-08-05T23:48:11.227Z,1.75
2017-08-05T23:50:37.572Z,1.80
2017-08-05T23:53:03.868Z,2.65
2017-08-05T23:55:30.187Z,1.30
2017-08-05T23:57:56.505Z,2.50
